Time;durP1;ratioP1;P1;durP2;ratioP2;P2;SDS_P1;SDS_P2;PMS_P1;PMS_P2;Temp;Humidity;BMP_temperature;BMP_pressure;BME280_temperature;BME280_humidity;BME280_pressure;Samples;Min_cycle;Max_cycle;Signal;HPM_P1;HPM_P2
2021/05/04 00:03:16;;;;;;;3.13;2.60;;;;;;;7.92;49.42;99813.16;10502659;28;20404;-75
2021/05/04 00:08:17;;;;;;;4.75;3.05;;;;;;;7.88;48.95;99811.56;10502268;28;20482;-72
2021/05/04 00:13:19;;;;;;;3.75;2.67;;;;;;;7.84;49.29;99802.91;10484669;28;20582;-73
2021/05/04 00:18:20;;;;;;;2.85;2.47;;;;;;;7.88;48.62;99797.59;10499276;28;20045;-72
2021/05/04 00:23:21;;;;;;;3.35;2.60;;;;;;;7.87;48.92;99793.25;10499628;28;20494;-70
2021/05/04 00:28:22;;;;;;;3.90;2.10;;;;;;;7.92;49.49;99784.38;10499228;28;20040;-71
2021/05/04 00:33:30;;;;;;;3.67;2.80;;;;;;;7.71;49.68;99770.09;10499699;28;20162;-71
2021/05/04 00:38:31;;;;;;;3.70;2.40;;;;;;;7.65;49.47;99762.38;10499213;28;20076;-72
2021/05/04 00:43:33;;;;;;;3.58;2.72;;;;;;;7.63;49.63;99748.47;10499671;28;20052;-72
2021/05/04 00:48:34;;;;;;;3.50;3.13;;;;;;;7.60;49.97;99748.53;10497442;28;20041;-72
2021/05/04 00:53:37;;;;;;;3.50;2.33;;;;;;;7.57;49.41;99738.19;10499923;28;20041;-71
2021/05/04 00:58:41;;;;;;;3.70;2.67;;;;;;;7.59;49.69;99729.38;10499454;28;20029;-71
2021/05/04 01:03:43;;;;;;;3.00;2.65;;;;;;;7.61;49.74;99723.25;10500230;28;20041;-71
2021/05/04 01:08:44;;;;;;;3.47;3.17;;;;;;;7.55;50.43;99717.28;10498668;28;20049;-71
2021/05/04 01:13:50;;;;;;;4.28;3.03;;;;;;;7.33;50.16;99714.31;10498070;28;20040;-71
2021/05/04 01:18:53;;;;;;;3.25;2.95;;;;;;;7.44;49.97;99708.84;10499918;28;20086;-71
2021/05/04 01:23:54;;;;;;;3.45;2.92;;;;;;;7.52;50.26;99703.41;10499224;28;20132;-71
2021/05/04 01:28:55;;;;;;;3.85;2.80;;;;;;;7.59;49.55;99697.13;10505137;28;20393;-71
2021/05/04 01:33:56;;;;;;;3.50;3.20;;;;;;;7.53;49.54;99694.69;10530212;28;20078;-71
2021/05/04 01:38:58;;;;;;;3.65;2.85;;;;;;;7.59;49.39;99684.91;10548955;28;20040;-71
2021/05/04 01:43:59;;;;;;;4.50;2.90;;;;;;;7.56;49.80;99671.03;10548719;28;20070;-72
2021/05/04 01:49:06;;;;;;;3.22;2.97;;;;;;;7.47;49.77;99669.53;10549350;28;20140;-73
2021/05/04 01:54:07;;;;;;;5.50;2.97;;;;;;;7.40;50.13;99652.28;10530221;28;20043;-71
2021/05/04 01:59:08;;;;;;;3.33;3.03;;;;;;;7.39;49.74;99641.84;10548757;28;20048;-71
2021/05/04 02:04:09;;;;;;;2.92;2.50;;;;;;;7.44;49.22;99630.41;10529618;28;20044;-72
2021/05/04 02:09:11;;;;;;;3.67;3.38;;;;;;;7.59;48.52;99616.06;10546647;28;20040;-70
2021/05/04 02:14:12;;;;;;;3.45;3.13;;;;;;;7.45;49.07;99607.72;10548020;28;20121;-71
2021/05/04 02:19:14;;;;;;;4.05;3.40;;;;;;;7.53;48.53;99590.06;10547058;28;20047;-72
2021/05/04 02:24:15;;;;;;;4.47;3.50;;;;;;;7.60;48.36;99594.22;10547146;28;20119;-72
2021/05/04 02:29:16;;;;;;;3.40;2.97;;;;;;;7.53;48.79;99585.69;10546931;28;20093;-71
2021/05/04 02:34:17;;;;;;;3.22;2.45;;;;;;;7.41;49.36;99577.31;10546485;28;20127;-72
2021/05/04 02:39:19;;;;;;;3.58;3.22;;;;;;;7.43;49.34;99568.50;10546270;28;20071;-72
2021/05/04 02:44:20;;;;;;;3.45;3.15;;;;;;;7.60;49.38;99557.59;10546467;28;20081;-72
2021/05/04 02:49:21;;;;;;;3.47;3.17;;;;;;;7.48;49.33;99556.19;10545849;28;20094;-71
2021/05/04 02:54:22;;;;;;;4.93;3.25;;;;;;;7.57;49.30;99552.47;10546031;28;20058;-71
2021/05/04 02:59:24;;;;;;;3.67;2.80;;;;;;;7.53;49.30;99540.38;10545631;28;20042;-71
2021/05/04 03:04:25;;;;;;;3.38;3.08;;;;;;;7.72;48.42;99522.41;10544627;28;20043;-72
2021/05/04 03:09:26;;;;;;;4.45;3.28;;;;;;;7.63;49.01;99522.66;10544888;28;20040;-72
2021/05/04 03:14:28;;;;;;;4.43;3.65;;;;;;;7.75;48.99;99504.88;10544776;28;20137;-72
2021/05/04 03:19:30;;;;;;;4.03;3.10;;;;;;;8.01;48.83;99495.38;10545761;28;20485;-71
2021/05/04 03:24:31;;;;;;;4.03;3.63;;;;;;;8.15;48.47;99493.22;10543695;28;20118;-72
2021/05/04 03:29:33;;;;;;;3.47;3.17;;;;;;;8.31;48.32;99477.88;10526277;28;20077;-71
2021/05/04 03:34:34;;;;;;;3.88;3.58;;;;;;;8.23;48.71;99451.06;10544235;28;20059;-72
2021/05/04 03:39:36;;;;;;;5.40;4.10;;;;;;;8.08;48.69;99445.41;10543979;28;20115;-72
2021/05/04 03:44:37;;;;;;;4.95;4.55;;;;;;;8.35;48.16;99433.22;10543459;28;20413;-71
2021/05/04 03:49:38;;;;;;;4.95;4.10;;;;;;;8.45;48.00;99415.47;10542983;28;20040;-71
2021/05/04 03:54:39;;;;;;;4.80;4.40;;;;;;;8.22;49.32;99416.19;10542365;28;20047;-72
2021/05/04 03:59:41;;;;;;;4.75;4.35;;;;;;;8.40;48.88;99400.81;10508686;28;20098;-72
2021/05/04 04:04:42;;;;;;;4.68;4.28;;;;;;;8.62;48.54;99390.47;10542661;28;20431;-72
2021/05/04 04:09:44;;;;;;;5.03;4.60;;;;;;;8.62;48.74;99380.00;10543542;28;20036;-72
2021/05/04 04:14:45;;;;;;;4.97;4.55;;;;;;;8.98;48.35;99370.00;10542634;28;20036;-72
2021/05/04 04:19:46;;;;;;;6.10;5.00;;;;;;;8.88;48.43;99366.00;10524474;28;20044;-72
2021/05/04 04:24:47;;;;;;;5.10;4.70;;;;;;;9.11;48.04;99355.53;10542301;28;20132;-72
2021/05/04 04:29:49;;;;;;;6.07;5.47;;;;;;;9.16;48.91;99350.13;10543383;28;20089;-72
2021/05/04 04:34:52;;;;;;;5.68;5.18;;;;;;;9.35;48.35;99331.03;10542603;28;20057;-72
2021/05/04 04:39:54;;;;;;;5.90;5.30;;;;;;;9.40;48.13;99328.22;10524454;28;20122;-72
2021/05/04 04:44:55;;;;;;;5.65;5.15;;;;;;;9.66;47.69;99310.63;10542158;28;20036;-72
2021/05/04 04:49:56;;;;;;;9.27;4.35;;;;;;;9.90;46.64;99306.16;10543053;28;20123;-73
2021/05/04 04:54:58;;;;;;;5.78;5.22;;;;;;;10.01;46.25;99296.94;10523829;28;20048;-71
2021/05/04 04:59:59;;;;;;;4.30;3.83;;;;;;;10.16;45.94;99287.56;10542620;28;20066;-71
2021/05/04 05:05:00;;;;;;;5.25;4.75;;;;;;;10.27;45.75;99282.75;10530297;28;20040;-71
2021/05/04 05:10:01;;;;;;;4.78;4.38;;;;;;;10.34;45.85;99272.81;10549165;28;20056;-73
2021/05/04 05:15:04;;;;;;;5.07;4.68;;;;;;;10.41;45.50;99258.50;10548967;28;20504;-71
2021/05/04 05:20:06;;;;;;;5.00;4.60;;;;;;;10.43;45.62;99258.44;10548592;28;20046;-71
2021/05/04 05:25:09;;;;;;;4.90;4.50;;;;;;;10.43;45.28;99259.28;10549417;28;20040;-72
2021/05/04 05:30:10;;;;;;;4.75;4.35;;;;;;;10.50;45.88;99263.34;10549878;28;20036;-71
2021/05/04 05:35:11;;;;;;;5.05;4.55;;;;;;;10.60;45.78;99248.03;10548302;28;20089;-72
2021/05/04 05:40:13;;;;;;;4.47;4.13;;;;;;;10.51;46.01;99257.19;10547974;28;20040;-72
2021/05/04 05:45:15;;;;;;;5.93;3.65;;;;;;;10.68;45.59;99242.44;10548663;28;20127;-72
2021/05/04 05:50:17;;;;;;;4.82;3.70;;;;;;;10.73;45.42;99233.41;10549522;28;20497;-73
2021/05/04 05:55:18;;;;;;;4.43;3.38;;;;;;;10.90;44.50;99226.56;10529901;28;20482;-71
2021/05/04 06:00:21;;;;;;;3.90;3.60;;;;;;;11.14;44.23;99232.44;10529965;28;20044;-71
2021/05/04 06:05:23;;;;;;;3.97;3.65;;;;;;;11.13;43.75;99204.44;10530531;28;20443;-70
2021/05/04 06:10:26;;;;;;;5.05;4.15;;;;;;;11.23;44.18;99200.44;10514346;28;20101;-72
2021/05/04 06:15:29;;;;;;;4.25;3.88;;;;;;;11.17;44.14;99183.19;10528375;28;20543;-72
2021/05/04 06:20:30;;;;;;;4.05;3.65;;;;;;;11.27;44.46;99176.53;10547563;28;20043;-71
2021/05/04 06:25:33;;;;;;;3.97;3.63;;;;;;;11.20;45.28;99171.63;10529244;28;20127;-71
2021/05/04 06:30:35;;;;;;;3.85;3.45;;;;;;;11.32;45.17;99139.47;10546886;28;20055;-72
2021/05/04 06:35:41;;;;;;;3.75;3.40;;;;;;;11.35;45.39;99131.44;10545661;28;20481;-72
2021/05/04 06:40:46;;;;;;;3.13;2.92;;;;;;;11.29;45.59;99116.81;10544568;28;20048;-72
2021/05/04 06:45:47;;;;;;;10.00;3.00;;;;;;;11.24;45.66;99105.66;10545292;28;20085;-71
2021/05/04 06:50:49;;;;;;;10.18;3.92;;;;;;;11.24;45.23;99091.66;10527655;28;20358;-73
2021/05/04 06:55:51;;;;;;;3.67;3.38;;;;;;;11.31;45.07;99086.00;10527059;28;20089;-71
2021/05/04 07:00:53;;;;;;;3.35;3.00;;;;;;;11.39;44.92;99085.63;10546168;28;20071;-71
2021/05/04 07:05:54;;;;;;;3.63;3.25;;;;;;;11.48;44.92;99072.00;10545186;28;20093;-71
2021/05/04 07:10:56;;;;;;;3.60;2.90;;;;;;;11.55;44.79;99068.16;10545223;28;20085;-71
2021/05/04 07:15:58;;;;;;;2.83;2.60;;;;;;;11.62;44.48;99059.00;10525826;28;20048;-72
2021/05/04 07:21:03;;;;;;;4.35;3.00;;;;;;;11.77;44.82;99045.97;10545992;28;20089;-72
2021/05/04 07:26:05;;;;;;;2.67;2.47;;;;;;;11.97;44.56;99021.25;10543293;28;20044;-72
2021/05/04 07:31:06;;;;;;;3.13;2.40;;;;;;;11.96;43.44;99012.50;10543253;28;20062;-72
2021/05/04 07:36:08;;;;;;;2.80;2.60;;;;;;;12.28;43.75;99004.63;10525789;28;20060;-72
2021/05/04 07:41:09;;;;;;;1.98;1.88;;;;;;;12.49;42.86;98994.69;10543914;28;20040;-73
2021/05/04 07:46:10;;;;;;;2.47;1.73;;;;;;;12.68;42.55;98963.69;10525296;28;20093;-72
2021/05/04 07:51:12;;;;;;;2.45;2.25;;;;;;;12.72;42.53;98959.09;10543528;28;20390;-72
2021/05/04 07:56:13;;;;;;;1.75;1.65;;;;;;;12.75;43.14;98948.38;10542940;28;20068;-72
2021/05/04 08:01:14;;;;;;;2.50;2.28;;;;;;;12.89;41.84;98940.53;10542935;28;20093;-72
2021/05/04 08:06:16;;;;;;;2.20;1.83;;;;;;;12.90;42.15;98944.84;10542537;28;20044;-71
2021/05/04 08:11:17;;;;;;;2.42;1.88;;;;;;;13.05;41.77;98943.09;10542122;28;20066;-71
2021/05/04 08:16:19;;;;;;;2.25;2.05;;;;;;;12.90;41.50;98929.03;10541344;28;20044;-73
2021/05/04 08:21:21;;;;;;;1.90;1.70;;;;;;;13.07;41.52;98928.88;10540604;28;20051;-72
2021/05/04 08:26:24;;;;;;;2.53;1.90;;;;;;;13.02;41.68;98924.81;10523828;28;20414;-71
2021/05/04 08:31:25;;;;;;;1.85;1.40;;;;;;;13.29;41.28;98917.06;10542444;28;20089;-72
2021/05/04 08:36:27;;;;;;;2.60;1.70;;;;;;;13.25;41.21;98916.41;10543495;28;20078;-71
2021/05/04 08:41:29;;;;;;;2.35;1.65;;;;;;;13.35;40.98;98914.03;10551129;28;20101;-71
2021/05/04 08:46:35;;;;;;;3.13;1.65;;;;;;;13.44;40.26;98908.22;10550674;28;20044;-71
2021/05/04 08:51:39;;;;;;;2.17;1.98;;;;;;;13.43;40.85;98895.09;10551643;28;20040;-73
2021/05/04 08:56:41;;;;;;;4.40;1.77;;;;;;;13.40;40.32;98888.22;10531684;28;20036;-73
2021/05/04 09:01:43;;;;;;;3.25;1.90;;;;;;;13.54;42.36;98887.34;10550115;28;20078;-71
2021/05/04 09:06:48;;;;;;;1.80;1.65;;;;;;;13.96;39.98;98867.13;10549904;28;20087;-71
2021/05/04 09:17:14;;;;;;;2.25;1.40;;;;;;;14.22;41.46;98876.84;10530221;28;20489;-72
2021/05/04 09:22:17;;;;;;;2.60;1.50;;;;;;;14.32;39.90;98866.53;10548237;28;20089;-71
2021/05/04 09:27:18;;;;;;;2.35;1.55;;;;;;;14.53;40.05;98880.16;10530339;28;20047;-72
2021/05/04 09:32:22;;;;;;;1.98;1.42;;;;;;;14.39;39.97;98849.31;10548007;28;20036;-71
2021/05/04 09:37:27;;;;;;;7.63;1.70;;;;;;;14.66;40.54;98846.66;10547895;28;20040;-71
2021/05/04 09:42:31;;;;;;;1.95;1.35;;;;;;;14.74;39.97;98856.69;10547677;28;20048;-72
2021/05/04 09:47:33;;;;;;;3.33;1.40;;;;;;;14.56;41.27;98862.28;10529913;28;20165;-70
2021/05/04 09:52:42;;;;;;;3.10;1.05;;;;;;;14.16;44.90;98902.81;10529169;28;20584;-70
2021/05/04 09:57:49;;;;;;;1.58;1.00;;;;;;;13.63;46.16;98876.22;10511661;28;20134;-71
2021/05/04 10:02:52;;;;;;;1.20;1.10;;;;;;;13.39;46.49;98860.13;10527929;28;20068;-72
2021/05/04 10:07:56;;;;;;;3.53;1.50;;;;;;;13.26;47.84;98875.03;10546187;28;20067;-72
2021/05/04 10:13:00;;;;;;;1.08;0.98;;;;;;;13.22;49.49;98868.19;10511838;28;20093;-72
2021/05/04 10:18:02;;;;;;;4.95;1.00;;;;;;;13.16;48.99;98881.78;10546888;28;20104;-71
2021/05/04 10:23:04;;;;;;;1.92;1.10;;;;;;;12.93;52.14;98855.00;10528600;28;20048;-71
2021/05/04 10:28:07;;;;;;;1.27;0.93;;;;;;;12.88;53.16;98828.03;10545754;28;20043;-72
2021/05/04 10:33:10;;;;;;;1.20;1.10;;;;;;;12.80;53.14;98819.75;10544708;28;20040;-71
2021/05/04 10:38:14;;;;;;;1.38;1.05;;;;;;;13.03;52.03;98819.19;10509765;28;20093;-73
2021/05/04 10:43:21;;;;;;;1.77;1.00;;;;;;;13.14;52.47;98811.47;10526448;28;20494;-72
2021/05/04 10:48:46;;;;;;;2.30;1.20;;;;;;;13.37;51.37;98794.25;10546721;28;20489;-73
2021/05/04 10:53:53;;;;;;;2.42;1.02;;;;;;;13.71;49.30;98804.44;10546882;28;20040;-73
2021/05/04 10:58:55;;;;;;;1.73;1.20;;;;;;;13.83;47.25;98791.31;10547343;28;20076;-72
2021/05/04 11:04:01;;;;;;;3.33;1.00;;;;;;;14.08;48.48;98780.00;10526989;28;20046;-73
2021/05/04 11:09:10;;;;;;;1.07;0.70;;;;;;;14.30;44.00;98773.28;10546814;28;20504;-73
2021/05/04 11:14:14;;;;;;;1.08;0.60;;;;;;;14.47;41.72;98764.19;10527813;28;20070;-72
2021/05/04 11:19:30;;;;;;;1.42;0.82;;;;;;;14.56;41.51;98753.00;10527546;28;20055;-72
2021/05/04 11:24:32;;;;;;;0.88;0.80;;;;;;;14.61;41.72;98757.06;10509858;28;20048;-72
2021/05/04 11:29:34;;;;;;;1.83;0.90;;;;;;;14.67;42.11;98754.94;10543825;28;20044;-72
2021/05/04 11:34:38;;;;;;;1.05;0.75;;;;;;;14.94;40.75;98742.44;10543064;28;20113;-74
2021/05/04 11:39:55;;;;;;;1.77;0.77;;;;;;;15.11;41.14;98735.97;10525293;28;20048;-75
2021/05/04 11:45:18;;;;;;;1.02;0.70;;;;;;;15.76;41.34;98725.06;10543213;28;20051;-74
2021/05/04 11:50:23;;;;;;;1.60;0.70;;;;;;;16.31;38.74;98720.09;10544108;28;20486;-74
2021/05/04 11:55:30;;;;;;;1.85;1.00;;;;;;;16.41;37.55;98705.16;10507748;28;20043;-73
2021/05/04 12:00:34;;;;;;;2.08;1.00;;;;;;;16.35;38.18;98698.53;10508266;28;20385;-73
2021/05/04 12:05:38;;;;;;;1.58;0.65;;;;;;;16.27;37.01;98706.22;10538234;28;20032;-73
2021/05/04 12:10:47;;;;;;;0.95;0.75;;;;;;;16.19;37.80;98713.91;10522570;28;20113;-74
2021/05/04 12:16:06;;;;;;;2.03;0.82;;;;;;;16.07;37.71;98709.50;10520869;28;20555;-74
2021/05/04 12:21:10;;;;;;;2.35;0.80;;;;;;;16.08;37.35;98709.41;10535060;28;20482;-74
2021/05/04 12:26:22;;;;;;;1.63;1.10;;;;;;;15.98;37.06;98715.50;10541426;28;20044;-73
2021/05/04 12:31:32;;;;;;;1.88;0.77;;;;;;;15.89;37.41;98715.25;10542553;28;20040;-73
2021/05/04 12:41:48;;;;;;;2.90;1.10;;;;;;;15.73;37.91;98714.69;10542983;28;20044;-73
2021/05/04 12:47:06;;;;;;;1.25;1.10;;;;;;;15.80;38.26;98715.91;10542447;28;20040;-73
2021/05/04 12:52:13;;;;;;;2.38;1.02;;;;;;;15.75;38.74;98703.97;10540875;28;20044;-73
2021/05/04 12:57:26;;;;;;;2.42;1.17;;;;;;;15.70;39.03;98717.56;10542423;28;20040;-74
2021/05/04 13:02:31;;;;;;;2.55;1.10;;;;;;;15.67;38.67;98717.81;10541995;28;20040;-72
2021/05/04 13:50:21;;;;;;;4.22;0.60;;;;;;;15.23;40.31;98715.69;10547466;28;20506;-74
2021/05/04 13:55:22;;;;;;;1.63;0.70;;;;;;;15.10;41.45;98718.38;10548218;28;20072;-72
2021/05/04 14:00:39;;;;;;;7.82;1.30;;;;;;;15.12;41.68;98712.00;10548183;28;20044;-73
2021/05/04 14:26:34;;;;;;;1.48;0.93;;;;;;;14.46;44.43;98731.63;10506610;28;20124;-72
2021/05/04 14:31:35;;;;;;;2.33;0.93;;;;;;;14.70;44.50;98725.59;10506072;28;20052;-73
2021/05/04 15:03:00;;;;;;;0.80;0.60;;;;;;;14.40;42.60;98713.53;10547346;28;20040;-73
2021/05/04 15:08:02;;;;;;;1.38;0.40;;;;;;;14.53;42.30;98703.00;10546834;28;20105;-72
2021/05/04 15:13:07;;;;;;;0.55;0.30;;;;;;;14.34;42.95;98688.38;10529110;28;20066;-73
2021/05/04 15:23:12;;;;;;;2.42;0.40;;;;;;;14.48;42.63;98692.75;10545555;28;20055;-72
2021/05/04 15:28:13;;;;;;;1.77;0.45;;;;;;;14.37;41.38;98671.44;10544542;28;20114;-73
2021/05/04 15:33:15;;;;;;;1.50;0.30;;;;;;;14.42;41.26;98663.19;10545521;28;20047;-73
2021/05/04 15:38:16;;;;;;;1.70;0.50;;;;;;;14.57;40.83;98656.88;10545583;28;20451;-73
2021/05/04 15:43:18;;;;;;;1.20;0.40;;;;;;;14.65;40.17;98654.53;10545112;28;20047;-73
2021/05/04 15:48:29;;;;;;;1.42;0.50;;;;;;;14.76;40.79;98662.56;10545437;28;20055;-72
2021/05/04 16:09:25;;;;;;;0.32;0.30;;;;;;;14.66;40.69;98676.56;10545286;28;20089;-73
2021/05/04 16:14:27;;;;;;;1.45;0.35;;;;;;;14.59;40.79;98661.09;10503287;28;20041;-73
2021/05/04 16:19:31;;;;;;;1.92;0.30;;;;;;;14.56;40.81;98665.75;10503033;28;20428;-73
2021/05/04 16:24:58;;;;;;;0.75;0.30;;;;;;;14.51;41.04;98652.84;10503242;28;20056;-72
2021/05/04 16:34:58;;;;;;;0.63;0.40;;;;;;;14.69;41.10;98655.16;10502841;28;20041;-72
2021/05/04 16:39:59;;;;;;;0.52;0.40;;;;;;;14.44;41.92;98648.94;10503149;28;20040;-73
2021/05/04 16:45:01;;;;;;;2.45;0.50;;;;;;;14.36;42.65;98653.91;10517491;28;20056;-72
2021/05/04 16:50:03;;;;;;;1.85;0.55;;;;;;;14.32;43.48;98647.13;10501588;28;20055;-74
2021/05/04 16:55:05;;;;;;;1.15;0.30;;;;;;;14.10;43.41;98645.13;10502296;28;20494;-72
2021/05/04 17:00:08;;;;;;;0.77;0.35;;;;;;;13.98;43.25;98640.66;10507390;28;20040;-73
2021/05/04 17:05:13;;;;;;;0.82;0.20;;;;;;;13.96;43.45;98648.69;10511817;28;20446;-74
2021/05/04 17:10:23;;;;;;;0.45;0.30;;;;;;;13.93;43.18;98638.31;10510781;28;20494;-73
2021/05/04 17:15:26;;;;;;;0.30;0.30;;;;;;;13.92;43.24;98639.28;10509944;28;20037;-73
2021/05/04 17:20:28;;;;;;;0.85;0.40;;;;;;;13.79;42.93;98639.25;10508172;28;20051;-73
2021/05/04 17:25:33;;;;;;;0.20;0.20;;;;;;;13.68;43.11;98640.91;10524664;28;20056;-72
2021/05/04 17:30:34;;;;;;;0.88;0.28;;;;;;;13.59;43.56;98639.72;10506853;28;20113;-73
2021/05/04 17:35:36;;;;;;;0.57;0.47;;;;;;;13.59;43.78;98637.09;10518032;23;20127;-69
2021/05/04 17:40:38;;;;;;;0.68;0.40;;;;;;;13.52;43.82;98638.47;10508337;28;20459;-70
2021/05/04 17:45:39;;;;;;;1.20;0.30;;;;;;;13.35;43.92;98626.38;10489950;28;20049;-69
2021/05/04 17:50:49;;;;;;;0.60;0.43;;;;;;;13.43;43.63;98624.06;10506728;28;20043;-69
2021/05/04 17:55:50;;;;;;;0.98;0.40;;;;;;;13.40;43.85;98610.22;10528857;28;20123;-70
2021/05/04 18:00:51;;;;;;;1.17;0.50;;;;;;;13.40;43.53;98615.50;10548277;28;20139;-68
2021/05/04 18:05:56;;;;;;;0.40;0.40;;;;;;;13.38;44.43;98613.81;10546449;28;20067;-68
2021/05/04 18:11:00;;;;;;;1.05;0.50;;;;;;;13.23;43.85;98608.69;10546557;28;20032;-69
2021/05/04 18:21:28;;;;;;;0.50;0.30;;;;;;;13.28;43.32;98606.59;10546862;28;20044;-68
2021/05/04 18:26:29;;;;;;;0.70;0.60;;;;;;;13.19;43.48;98600.09;10528619;28;20043;-70
2021/05/04 18:31:37;;;;;;;2.33;0.30;;;;;;;13.06;43.93;98607.97;10546706;28;20109;-69
2021/05/04 18:37:00;;;;;;;1.20;0.32;;;;;;;13.07;43.77;98604.38;10528105;28;20059;-69
2021/05/04 19:04:04;;;;;;;1.27;0.20;;;;;;;12.61;43.98;98632.81;10547602;28;20048;-70
2021/05/04 19:10:08;;;;;;;0.30;0.30;;;;;;;12.62;44.08;98635.38;10528300;28;20036;-69
2021/05/04 19:31:27;;;;;;;0.60;0.40;;;;;;;12.26;46.03;98664.84;10545510;28;20040;-68
2021/05/04 19:41:53;;;;;;;1.52;0.30;;;;;;;12.33;46.36;98670.56;10533724;28;20059;-70
2021/05/04 19:53:15;;;;;;;0.43;0.20;;;;;;;12.10;47.26;98674.59;10544948;28;20480;-69
2021/05/04 20:08:24;;;;;;;0.20;0.20;;;;;;;12.07;48.03;98670.34;10544512;28;20068;-68
2021/05/04 20:13:25;;;;;;;0.43;0.30;;;;;;;12.08;47.88;98677.31;10543944;28;20064;-70
2021/05/04 20:18:30;;;;;;;0.38;0.20;;;;;;;12.00;47.89;98671.66;10526787;28;20477;-69
2021/05/04 20:23:31;;;;;;;1.15;0.30;;;;;;;12.01;48.15;98662.81;10527034;28;20040;-69
2021/05/04 20:28:36;;;;;;;0.40;0.30;;;;;;;12.03;48.38;98674.09;10527020;28;20582;-68
2021/05/04 20:33:37;;;;;;;0.47;0.30;;;;;;;11.88;49.10;98675.03;10543911;28;20461;-69
2021/05/04 20:38:39;;;;;;;0.85;0.25;;;;;;;11.84;49.46;98676.13;10545459;28;20046;-69
2021/05/04 20:43:40;;;;;;;0.60;0.40;;;;;;;11.76;50.05;98691.50;10544221;28;20048;-69
2021/05/04 20:48:41;;;;;;;1.00;0.30;;;;;;;11.58;52.81;98703.94;10526506;28;20040;-69
2021/05/04 20:53:43;;;;;;;1.23;0.55;;;;;;;10.87;57.52;98696.47;10543409;28;20058;-69
2021/05/04 20:58:44;;;;;;;0.47;0.30;;;;;;;10.57;59.34;98683.19;10543312;28;20032;-69
2021/05/04 21:03:45;;;;;;;0.80;0.40;;;;;;;10.51;59.58;98681.75;10525243;28;20489;-70
2021/05/04 21:08:48;;;;;;;0.32;0.30;;;;;;;10.41;59.32;98688.44;10542916;28;20458;-69
2021/05/04 21:13:50;;;;;;;1.42;0.30;;;;;;;10.53;58.42;98660.63;10525148;28;20063;-69
2021/05/04 21:18:59;;;;;;;0.20;0.20;;;;;;;10.66;57.36;98668.72;10543587;28;20469;-70
2021/05/04 21:24:10;;;;;;;0.77;0.30;;;;;;;10.91;54.32;98666.47;10542002;28;20090;-70
2021/05/04 21:29:11;;;;;;;1.77;0.52;;;;;;;10.96;53.84;98661.78;10523596;28;20059;-68
2021/05/04 21:34:15;;;;;;;1.48;0.40;;;;;;;11.04;52.97;98662.22;10523611;28;20094;-69
2021/05/04 21:39:17;;;;;;;1.90;0.75;;;;;;;11.06;52.00;98660.34;10523911;28;20040;-69
2021/05/04 21:44:19;;;;;;;2.88;0.55;;;;;;;11.14;51.62;98659.09;10542871;28;20048;-69
2021/05/04 21:49:20;;;;;;;0.98;0.50;;;;;;;11.12;51.37;98653.91;10547808;28;20053;-68
2021/05/04 21:54:22;;;;;;;0.98;0.50;;;;;;;11.13;51.67;98658.22;10547395;28;20068;-69
2021/05/04 21:59:23;;;;;;;4.63;0.60;;;;;;;11.09;51.34;98673.34;10547739;28;20079;-69
2021/05/04 22:04:24;;;;;;;0.88;0.30;;;;;;;11.05;51.07;98666.53;10547255;28;20473;-68
2021/05/04 22:09:27;;;;;;;2.17;0.60;;;;;;;11.07;50.41;98671.75;10528372;28;20085;-69
2021/05/04 22:14:41;;;;;;;1.88;0.60;;;;;;;11.01;50.63;98667.66;10547090;28;20044;-70
2021/05/04 22:35:18;;;;;;;1.83;0.35;;;;;;;10.78;50.20;98666.28;10545688;28;20051;-69
2021/05/04 22:40:22;;;;;;;0.55;0.30;;;;;;;10.60;50.82;98648.88;10547371;28;20048;-69
2021/05/04 23:17:19;;;;;;;0.75;0.30;;;;;;;10.07;53.24;98653.38;10525427;28;20500;-68
2021/05/04 23:22:22;;;;;;;1.02;0.22;;;;;;;10.09;53.73;98659.41;10544367;28;20040;-69
2021/05/04 23:27:23;;;;;;;0.68;0.20;;;;;;;10.12;53.85;98655.75;10543955;28;20055;-68
2021/05/04 23:32:25;;;;;;;5.63;0.40;;;;;;;9.93;54.60;98653.25;10524745;28;20074;-69
2021/05/04 23:37:26;;;;;;;1.05;0.30;;;;;;;9.93;54.85;98663.75;10556107;22;20055;-72
2021/05/04 23:42:27;;;;;;;3.15;0.63;;;;;;;9.78;55.26;98648.75;10543138;28;20096;-72
2021/05/04 23:47:29;;;;;;;0.28;0.20;;;;;;;9.68;55.73;98651.00;10588456;28;20051;-73
2021/05/04 23:52:30;;;;;;;2.33;0.40;;;;;;;9.68;55.63;98643.13;10570873;28;20408;-73
2021/05/04 23:57:31;;;;;;;1.17;0.20;;;;;;;9.58;55.84;98644.53;10587853;28;20074;-74
